createdAt,value
2023-02-06T00:03:59.330Z,23.57
2023-02-06T00:09:03.693Z,23.10
2023-02-06T00:14:07.563Z,25.30
2023-02-06T00:19:10.870Z,22.37
2023-02-06T00:24:14.177Z,22.93
2023-02-06T00:29:17.532Z,25.40
2023-02-06T00:34:20.916Z,21.37
2023-02-06T00:39:24.715Z,18.60
2023-02-06T00:44:29.395Z,21.23
2023-02-06T00:49:32.675Z,22.80
2023-02-06T00:54:36.047Z,20.83
2023-02-06T00:59:39.944Z,21.33
2023-02-06T01:04:43.694Z,19.57
2023-02-06T01:09:47.308Z,19.63
2023-02-06T01:14:51.022Z,16.37
2023-02-06T01:19:54.708Z,19.03
2023-02-06T01:24:58.308Z,20.50
2023-02-06T01:30:01.810Z,22.30
2023-02-06T01:35:07.668Z,24.90
2023-02-06T01:40:15.358Z,29.20
2023-02-06T01:45:27.528Z,27.13
2023-02-06T01:50:33.706Z,23.40
2023-02-06T01:55:39.788Z,19.90
2023-02-06T02:00:44.526Z,17.33
2023-02-06T02:05:49.448Z,17.97
2023-02-06T02:10:52.870Z,17.67
2023-02-06T02:16:27.158Z,17.43
2023-02-06T02:21:55.043Z,16.07
2023-02-06T02:27:49.615Z,18.00
2023-02-06T02:32:55.968Z,25.40
2023-02-06T02:38:06.401Z,23.07
2023-02-06T02:43:27.116Z,23.77
2023-02-06T02:48:35.893Z,24.20
2023-02-06T02:53:39.670Z,25.57
2023-02-06T02:58:44.252Z,22.90
2023-02-06T03:03:51.249Z,23.90
2023-02-06T03:09:12.009Z,25.83
2023-02-06T03:14:21.179Z,26.97
2023-02-06T03:19:32.094Z,22.80
2023-02-06T03:24:39.825Z,22.67
2023-02-06T03:29:44.395Z,24.67
2023-02-06T03:35:07.490Z,23.00
2023-02-06T03:40:12.180Z,23.93
2023-02-06T03:45:22.566Z,25.03
2023-02-06T03:50:27.358Z,27.47
2023-02-06T03:55:31.756Z,27.77
2023-02-06T04:00:35.566Z,28.80
2023-02-06T04:05:39.435Z,31.20
2023-02-06T04:10:42.900Z,28.93
2023-02-06T04:15:46.121Z,28.23
2023-02-06T04:20:49.938Z,27.80
2023-02-06T04:25:53.382Z,29.17
2023-02-06T04:30:57.004Z,32.87
2023-02-06T04:36:00.329Z,32.57
2023-02-06T04:41:07.894Z,31.10
2023-02-06T04:46:11.641Z,29.50
2023-02-06T04:51:15.365Z,28.50
2023-02-06T04:56:18.999Z,30.73
2023-02-06T05:01:22.612Z,32.17
2023-02-06T05:06:25.955Z,30.30
2023-02-06T05:11:29.413Z,31.87
2023-02-06T05:16:33.030Z,30.07
2023-02-06T05:21:36.252Z,27.77
2023-02-06T05:26:39.481Z,33.33
2023-02-06T05:31:42.902Z,31.43
2023-02-06T05:36:46.613Z,32.60
2023-02-06T05:41:50.188Z,33.83
2023-02-06T05:46:53.943Z,32.47
2023-02-06T05:51:57.145Z,35.23
2023-02-06T05:57:00.896Z,33.40
2023-02-06T06:02:05.709Z,31.23
2023-02-06T06:07:09.346Z,30.63
2023-02-06T06:12:12.729Z,30.13
2023-02-06T06:17:16.308Z,28.03
2023-02-06T06:22:19.954Z,32.00
2023-02-06T06:27:23.582Z,30.70
2023-02-06T06:32:27.067Z,30.70
2023-02-06T06:37:30.358Z,30.60
2023-02-06T06:42:33.777Z,30.00
2023-02-06T06:47:39.852Z,30.47
2023-02-06T06:52:43.388Z,27.27
2023-02-06T06:57:48.008Z,30.17
2023-02-06T07:02:52.043Z,29.03
2023-02-06T07:07:55.748Z,26.17
2023-02-06T07:12:59.496Z,27.90
2023-02-06T07:18:03.143Z,29.63
2023-02-06T07:23:07.147Z,26.50
2023-02-06T07:28:10.816Z,29.30
2023-02-06T07:33:14.208Z,29.00
2023-02-06T07:38:17.553Z,29.40
2023-02-06T07:43:21.005Z,29.63
2023-02-06T07:48:24.397Z,33.57
2023-02-06T07:53:27.704Z,34.10
2023-02-06T07:58:31.420Z,36.27
2023-02-06T08:03:35.090Z,35.67
2023-02-06T08:08:38.442Z,35.63
2023-02-06T08:13:43.323Z,35.50
2023-02-06T08:18:47.038Z,38.67
2023-02-06T08:23:58.288Z,38.13
2023-02-06T08:29:04.421Z,48.00
2023-02-06T08:34:11.030Z,35.37
2023-02-06T08:39:15.988Z,32.33
2023-02-06T08:44:20.109Z,29.80
2023-02-06T08:49:27.290Z,31.77
2023-02-06T08:54:32.182Z,33.17
2023-02-06T08:59:36.868Z,32.50
2023-02-06T09:04:40.348Z,30.10
2023-02-06T09:09:43.579Z,28.83
2023-02-06T09:14:46.910Z,28.70
2023-02-06T09:19:50.258Z,24.23
2023-02-06T09:24:54.317Z,24.23
2023-02-06T09:29:57.750Z,24.53
2023-02-06T09:35:01.736Z,22.83
2023-02-06T09:40:05.612Z,20.50
2023-02-06T09:45:21.784Z,19.93
2023-02-06T09:50:48.275Z,16.33
2023-02-06T09:56:36.953Z,20.30
2023-02-06T10:02:00.230Z,15.20
2023-02-06T10:07:19.211Z,18.50
2023-02-06T10:12:31.757Z,17.60
2023-02-06T10:17:42.406Z,16.47
2023-02-06T10:23:07.481Z,16.53
2023-02-06T10:28:29.702Z,15.70
2023-02-06T10:34:07.405Z,16.33
2023-02-06T10:39:48.332Z,16.13
2023-02-06T10:45:06.573Z,16.23
2023-02-06T10:50:30.726Z,14.80
2023-02-06T10:56:03.689Z,14.90
2023-02-06T11:01:24.701Z,15.00
2023-02-06T11:06:30.453Z,14.97
2023-02-06T11:11:39.330Z,14.40
2023-02-06T11:16:43.457Z,13.93
2023-02-06T11:21:52.721Z,12.80
2023-02-06T11:27:11.388Z,12.00
2023-02-06T11:32:52.785Z,10.87
2023-02-06T11:38:14.931Z,11.17
2023-02-06T11:43:26.755Z,10.37
2023-02-06T11:48:56.260Z,8.07
2023-02-06T11:54:04.521Z,7.90
2023-02-06T11:59:16.148Z,7.23
2023-02-06T12:04:38.733Z,8.23
2023-02-06T12:09:42.634Z,8.30
2023-02-06T12:14:58.138Z,8.63
2023-02-06T12:20:21.420Z,9.00
2023-02-06T12:25:40.715Z,7.30
2023-02-06T12:30:56.177Z,8.13
2023-02-06T12:36:09.801Z,7.70
2023-02-06T12:41:21.921Z,7.67
2023-02-06T12:46:28.425Z,7.60
2023-02-06T12:51:47.102Z,8.60
2023-02-06T12:56:55.953Z,8.27
2023-02-06T13:02:17.365Z,7.77
2023-02-06T13:07:24.058Z,6.87
2023-02-06T13:12:30.821Z,7.10
2023-02-06T13:17:37.072Z,6.90
2023-02-06T13:22:45.297Z,7.70
2023-02-06T13:27:48.917Z,7.93
2023-02-06T13:32:53.670Z,7.53
2023-02-06T13:38:35.349Z,6.17
2023-02-06T13:43:39.488Z,7.93
2023-02-06T13:49:18.498Z,7.47
2023-02-06T13:54:42.354Z,7.43
2023-02-06T14:00:14.072Z,7.00
2023-02-06T14:05:22.641Z,7.53
2023-02-06T14:11:06.428Z,6.80
2023-02-06T14:16:42.515Z,7.87
2023-02-06T14:22:02.548Z,7.87
2023-02-06T14:27:22.974Z,7.33
2023-02-06T14:33:00.412Z,6.47
2023-02-06T14:38:21.934Z,5.93
2023-02-06T14:43:30.239Z,6.17
2023-02-06T14:48:52.563Z,6.70
2023-02-06T14:54:18.056Z,5.43
2023-02-06T14:59:21.185Z,6.70
2023-02-06T15:04:30.537Z,8.77
2023-02-06T15:09:40.795Z,9.07
2023-02-06T15:14:53.173Z,8.23
2023-02-06T15:19:56.337Z,10.50
2023-02-06T15:25:06.078Z,8.57
2023-02-06T15:30:28.105Z,8.70
2023-02-06T15:35:36.754Z,6.77
2023-02-06T15:46:20.540Z,8.13
2023-02-06T15:51:29.518Z,7.83
2023-02-06T15:56:40.428Z,8.13
2023-02-06T16:01:44.770Z,7.47
2023-02-06T16:07:05.622Z,7.50
2023-02-06T16:12:10.155Z,7.13
2023-02-06T16:17:13.856Z,7.87
2023-02-06T16:22:23.329Z,7.27
2023-02-06T16:27:28.514Z,8.17
2023-02-06T16:32:33.192Z,7.57
2023-02-06T16:37:36.792Z,8.07
2023-02-06T16:42:48.507Z,7.43
2023-02-06T16:47:59.950Z,6.97
2023-02-06T16:53:19.838Z,8.37
2023-02-06T17:10:09.385Z,14.57
2023-02-06T17:15:29.543Z,10.87
2023-02-06T17:20:41.108Z,11.90
2023-02-06T17:25:49.596Z,12.30
2023-02-06T17:30:57.833Z,12.63
2023-02-06T17:36:09.120Z,12.77
2023-02-06T17:41:18.415Z,12.23
2023-02-06T17:46:29.572Z,15.20
2023-02-06T17:51:35.600Z,18.33
2023-02-06T17:56:48.050Z,19.20
2023-02-06T18:02:02.797Z,17.77
2023-02-06T18:07:10.730Z,16.37
2023-02-06T18:12:18.861Z,15.13
2023-02-06T18:17:25.440Z,11.77
2023-02-06T18:22:29.532Z,13.17
2023-02-06T18:27:33.828Z,14.13
2023-02-06T18:32:39.680Z,13.43
2023-02-06T18:37:44.757Z,13.27
2023-02-06T18:42:52.431Z,11.57
2023-02-06T18:47:58.813Z,11.57
2023-02-06T18:53:06.632Z,9.80
2023-02-06T18:58:12.432Z,9.33
2023-02-06T19:03:16.941Z,11.37
2023-02-06T19:08:23.055Z,12.83
2023-02-06T19:13:30.762Z,15.37
2023-02-06T19:18:40.957Z,13.77
2023-02-06T19:23:51.461Z,13.90
2023-02-06T19:28:58.251Z,12.77
2023-02-06T19:34:04.466Z,13.23
2023-02-06T19:39:14.612Z,14.07
2023-02-06T19:44:21.906Z,15.37
2023-02-06T19:49:28.740Z,15.13
2023-02-06T19:54:36.153Z,13.47
2023-02-06T19:59:39.892Z,15.43
2023-02-06T20:04:47.634Z,15.87
2023-02-06T20:09:58.214Z,13.90
2023-02-06T20:15:04.330Z,14.10
2023-02-06T20:20:09.295Z,13.67
2023-02-06T20:25:14.150Z,13.37
2023-02-06T20:30:21.438Z,11.07
2023-02-06T20:35:28.032Z,12.27
2023-02-06T20:40:32.680Z,14.60
2023-02-06T20:45:38.093Z,12.67
2023-02-06T20:50:42.222Z,12.37
2023-02-06T20:55:47.151Z,13.97
2023-02-06T21:00:51.542Z,12.03
2023-02-06T21:06:00.759Z,13.60
2023-02-06T21:11:07.484Z,12.83
2023-02-06T21:16:13.616Z,15.93
2023-02-06T21:21:17.874Z,14.27
2023-02-06T21:26:23.810Z,10.87
2023-02-06T21:31:38.179Z,10.53
2023-02-06T21:36:43.710Z,11.93
2023-02-06T21:41:51.896Z,14.23
2023-02-06T21:53:27.685Z,13.57
2023-02-06T21:58:31.106Z,12.90
2023-02-06T22:03:35.322Z,12.80
2023-02-06T22:08:42.168Z,13.07
2023-02-06T22:13:45.809Z,15.53
2023-02-06T22:18:50.328Z,20.37
2023-02-06T22:23:56.464Z,16.97
2023-02-06T22:29:00.781Z,16.40
2023-02-06T22:34:05.203Z,19.00
2023-02-06T22:39:10.830Z,18.43
2023-02-06T22:44:18.580Z,17.40
2023-02-06T22:49:25.543Z,17.60
2023-02-06T22:54:29.279Z,16.63
2023-02-06T22:59:32.819Z,19.03
2023-02-06T23:04:38.681Z,18.77
2023-02-06T23:09:42.287Z,19.43
2023-02-06T23:14:45.641Z,21.50
2023-02-06T23:19:48.987Z,21.77
2023-02-06T23:24:52.441Z,21.43
2023-02-06T23:29:55.877Z,21.90
2023-02-06T23:34:59.965Z,21.53
2023-02-06T23:40:05.861Z,22.90
2023-02-06T23:45:09.555Z,22.13
2023-02-06T23:50:13.352Z,23.93
2023-02-06T23:55:17.560Z,22.30
